Time;durP1;ratioP1;P1;durP2;ratioP2;P2;SDS_P1;SDS_P2;PMS_P1;PMS_P2;Temp;Humidity;BMP_temperature;BMP_pressure;BME280_temperature;BME280_humidity;BME280_pressure;Samples;Min_cycle;Max_cycle;Signal;HPM_P1;HPM_P2
2022/08/02 00:00:13;;;;;;;0.88;0.50;;;19.80;99.90;;;;;;5055035;28;20576;-57
2022/08/02 00:02:42;;;;;;;0.60;0.60;;;19.80;99.90;;;;;;5054823;28;20180;-57
2022/08/02 00:05:09;;;;;;;1.10;0.70;;;19.80;99.90;;;;;;5037271;28;20171;-57
2022/08/02 00:07:35;;;;;;;0.50;0.50;;;19.70;99.90;;;;;;5055064;28;20266;-57
2022/08/02 00:10:01;;;;;;;0.63;0.63;;;19.60;99.90;;;;;;5037369;28;20175;-57
2022/08/02 00:12:27;;;;;;;0.50;0.50;;;19.60;99.90;;;;;;5054732;28;20203;-57
2022/08/02 00:14:52;;;;;;;0.60;0.60;;;19.60;99.90;;;;;;5054688;28;20703;-57
2022/08/02 00:17:18;;;;;;;0.68;0.60;;;19.60;99.90;;;;;;5054635;28;20171;-57
2022/08/02 00:19:45;;;;;;;0.73;0.55;;;19.60;99.90;;;;;;5037152;28;20179;-57
2022/08/02 00:22:10;;;;;;;1.25;0.70;;;19.70;99.90;;;;;;5036984;28;20183;-57
2022/08/02 00:24:36;;;;;;;1.23;0.60;;;19.60;99.90;;;;;;5036873;28;20179;-57
2022/08/02 00:27:02;;;;;;;0.73;0.68;;;19.50;99.90;;;;;;5054498;28;20175;-57
2022/08/02 00:29:29;;;;;;;0.50;0.50;;;19.50;99.90;;;;;;5036538;28;20178;-57
2022/08/02 00:31:56;;;;;;;0.40;0.40;;;19.50;99.90;;;;;;5037028;28;20175;-57
2022/08/02 00:34:21;;;;;;;0.30;0.30;;;19.50;99.90;;;;;;5054426;28;20239;-57
2022/08/02 00:36:47;;;;;;;0.60;0.60;;;19.60;99.90;;;;;;5054287;28;20203;-56
2022/08/02 00:39:13;;;;;;;0.75;0.75;;;19.60;99.90;;;;;;5053934;28;20663;-57
2022/08/02 00:41:50;;;;;;;1.15;1.05;;;19.60;99.90;;;;;;5036600;28;20229;-57
2022/08/02 00:44:16;;;;;;;1.40;0.70;;;19.50;99.90;;;;;;5054201;28;20644;-57
2022/08/02 00:46:43;;;;;;;0.70;0.70;;;19.50;99.90;;;;;;5054107;28;20191;-57
2022/08/02 00:49:09;;;;;;;0.65;0.65;;;19.50;99.90;;;;;;5054104;28;20685;-57
2022/08/02 00:51:35;;;;;;;0.50;0.50;;;19.50;99.90;;;;;;5036449;28;20172;-56
2022/08/02 00:54:01;;;;;;;1.13;0.68;;;19.50;99.90;;;;;;5036236;28;20510;-57
2022/08/02 00:56:27;;;;;;;0.50;0.50;;;19.50;99.90;;;;;;5036174;28;20182;-57
2022/08/02 00:58:53;;;;;;;1.85;0.70;;;19.50;99.90;;;;;;5053766;28;20701;-57
2022/08/02 01:01:19;;;;;;;0.63;0.63;;;19.30;99.90;;;;;;5054263;28;20179;-57
2022/08/02 01:03:45;;;;;;;0.80;0.80;;;19.30;99.90;;;;;;5054140;28;20202;-57
2022/08/02 01:06:10;;;;;;;0.85;0.85;;;19.30;99.90;;;;;;5035975;28;20167;-57
2022/08/02 01:08:39;;;;;;;0.60;0.60;;;19.30;99.90;;;;;;5053669;28;20179;-57
2022/08/02 01:11:05;;;;;;;0.45;0.45;;;19.20;99.90;;;;;;5053760;28;20168;-58
2022/08/02 01:13:31;;;;;;;2.15;0.82;;;19.20;99.90;;;;;;5053658;28;20210;-57
2022/08/02 01:16:05;;;;;;;0.80;0.65;;;19.00;99.90;;;;;;5053605;28;20238;-57
2022/08/02 01:18:39;;;;;;;2.30;0.60;;;18.90;99.90;;;;;;5053578;28;20182;-57
2022/08/02 01:21:13;;;;;;;0.57;0.55;;;18.90;99.90;;;;;;5053624;28;20217;-57
2022/08/02 01:24:16;;;;;;;1.70;0.65;;;18.90;99.90;;;;;;5053423;28;20167;-58
2022/08/02 01:26:49;;;;;;;0.93;0.80;;;18.90;99.90;;;;;;5053347;28;20632;-57
2022/08/02 01:29:38;;;;;;;1.27;0.70;;;18.80;99.90;;;;;;5053521;28;20197;-57
2022/08/02 01:32:23;;;;;;;0.80;0.70;;;18.80;99.90;;;;;;5053268;28;20197;-57
2022/08/02 01:34:54;;;;;;;0.73;0.73;;;18.90;99.90;;;;;;5035409;28;20226;-57
2022/08/02 01:37:39;;;;;;;0.85;0.85;;;18.80;99.90;;;;;;5053417;28;20171;-57
2022/08/02 01:40:13;;;;;;;0.73;0.73;;;18.70;99.90;;;;;;5053259;28;20168;-57
2022/08/02 01:42:47;;;;;;;0.85;0.70;;;18.70;99.90;;;;;;5053229;28;20168;-57
2022/08/02 01:45:15;;;;;;;1.08;1.02;;;18.70;99.90;;;;;;5053492;28;20171;-57
2022/08/02 01:47:43;;;;;;;1.67;0.75;;;18.70;99.90;;;;;;5053318;28;20170;-57
2022/08/02 01:50:12;;;;;;;0.60;0.60;;;18.70;99.90;;;;;;5052413;28;20207;-57
2022/08/02 01:52:48;;;;;;;0.60;0.60;;;18.70;99.90;;;;;;5053253;28;20163;-57
2022/08/02 01:55:20;;;;;;;0.47;0.47;;;18.80;99.90;;;;;;5053405;28;20221;-57
2022/08/02 01:57:52;;;;;;;1.35;0.70;;;18.70;99.90;;;;;;5053276;28;20175;-57
2022/08/02 02:00:20;;;;;;;0.70;0.70;;;18.50;99.90;;;;;;5053181;28;20179;-57
2022/08/02 02:02:48;;;;;;;1.35;0.65;;;18.60;99.90;;;;;;5053135;28;20167;-57
2022/08/02 02:05:17;;;;;;;0.50;0.50;;;18.70;99.90;;;;;;5035558;28;20167;-57
2022/08/02 02:07:44;;;;;;;0.70;0.70;;;18.70;99.90;;;;;;5053233;28;20167;-57
2022/08/02 02:10:14;;;;;;;1.08;0.85;;;18.70;99.90;;;;;;5018736;28;20266;-57
2022/08/02 02:12:43;;;;;;;0.65;0.65;;;18.60;99.90;;;;;;5052958;28;20207;-57
2022/08/02 02:15:11;;;;;;;1.27;0.70;;;18.60;99.90;;;;;;5053074;28;20286;-57
2022/08/02 02:17:41;;;;;;;0.98;0.80;;;18.60;99.90;;;;;;5052920;28;20171;-57
2022/08/02 02:20:10;;;;;;;0.65;0.63;;;18.60;99.90;;;;;;5052832;28;20170;-57
2022/08/02 02:22:35;;;;;;;0.47;0.47;;;18.60;99.90;;;;;;5035671;28;20199;-57
2022/08/02 02:25:02;;;;;;;0.68;0.68;;;18.60;99.90;;;;;;5053156;28;20218;-57
2022/08/02 02:27:28;;;;;;;0.50;0.50;;;18.50;99.90;;;;;;5052990;28;20175;-57
2022/08/02 02:29:55;;;;;;;0.47;0.47;;;18.50;99.90;;;;;;5052829;28;20190;-57
2022/08/02 02:32:23;;;;;;;0.70;0.65;;;18.50;99.90;;;;;;5052717;28;20203;-57
2022/08/02 02:34:50;;;;;;;1.85;0.77;;;18.40;99.90;;;;;;5052838;28;20211;-57
2022/08/02 02:37:22;;;;;;;1.20;0.77;;;18.40;99.90;;;;;;5035044;28;20584;-57
2022/08/02 02:39:53;;;;;;;0.68;0.60;;;18.40;99.90;;;;;;5052849;28;20633;-57
2022/08/02 02:42:24;;;;;;;0.60;0.60;;;18.40;99.90;;;;;;5052622;28;20191;-57
2022/08/02 02:44:51;;;;;;;1.10;1.02;;;18.30;99.90;;;;;;5052744;28;20250;-57
2022/08/02 02:47:19;;;;;;;0.60;0.60;;;18.30;99.90;;;;;;5052548;28;20168;-57
2022/08/02 02:49:48;;;;;;;0.70;0.70;;;18.30;99.90;;;;;;5018742;28;20236;-58
2022/08/02 02:52:16;;;;;;;0.70;0.70;;;18.30;99.90;;;;;;5052723;28;20167;-57
2022/08/02 02:54:45;;;;;;;0.80;0.80;;;18.30;99.90;;;;;;5052560;28;20294;-57
2022/08/02 02:57:12;;;;;;;0.70;0.70;;;18.20;99.90;;;;;;5052460;28;20222;-56
2022/08/02 02:59:39;;;;;;;0.85;0.85;;;18.20;99.90;;;;;;5052475;28;20207;-57
2022/08/02 03:02:06;;;;;;;1.00;0.90;;;18.10;99.90;;;;;;5055840;28;20176;-57
2022/08/02 03:04:32;;;;;;;0.82;0.80;;;18.10;99.90;;;;;;5056236;28;20175;-57
2022/08/02 03:07:00;;;;;;;0.63;0.63;;;18.10;99.90;;;;;;5038424;28;20179;-57
2022/08/02 03:09:26;;;;;;;1.08;0.98;;;18.00;99.90;;;;;;5055985;28;20246;-57
2022/08/02 03:11:55;;;;;;;0.88;0.88;;;18.00;99.90;;;;;;5055908;28;20286;-57
2022/08/02 03:14:22;;;;;;;0.95;0.95;;;18.00;99.90;;;;;;5055730;28;20219;-57
2022/08/02 03:16:50;;;;;;;1.15;1.10;;;18.00;99.90;;;;;;5056178;28;20620;-57
2022/08/02 03:19:18;;;;;;;1.00;0.70;;;17.90;99.90;;;;;;5038143;28;20560;-57
2022/08/02 03:21:46;;;;;;;1.20;0.90;;;18.00;99.90;;;;;;5055946;28;20178;-58
2022/08/02 03:24:12;;;;;;;1.13;0.80;;;18.00;99.90;;;;;;5055760;28;20187;-57
2022/08/02 03:26:38;;;;;;;1.85;0.90;;;18.00;99.90;;;;;;5037870;28;20583;-58
2022/08/02 03:29:05;;;;;;;0.90;0.90;;;18.00;99.90;;;;;;5055820;28;20694;-57
2022/08/02 03:31:31;;;;;;;0.80;0.80;;;18.00;99.90;;;;;;5038069;28;20183;-57
2022/08/02 03:33:59;;;;;;;0.75;0.75;;;18.00;99.90;;;;;;5037836;28;20176;-57
2022/08/02 03:36:27;;;;;;;0.90;0.80;;;17.90;99.90;;;;;;5055415;28;20262;-57
2022/08/02 03:38:54;;;;;;;0.85;0.80;;;17.80;99.90;;;;;;5055462;28;20178;-58
2022/08/02 03:41:21;;;;;;;1.27;0.88;;;17.80;99.90;;;;;;5055430;28;20233;-57
2022/08/02 03:43:48;;;;;;;0.80;0.80;;;17.80;99.90;;;;;;5055453;28;20183;-57
2022/08/02 03:46:18;;;;;;;1.10;1.00;;;17.70;99.90;;;;;;5055753;28;20175;-57
2022/08/02 03:48:45;;;;;;;0.98;0.90;;;17.70;99.90;;;;;;5055365;28;20250;-57
2022/08/02 03:51:11;;;;;;;1.20;0.82;;;17.70;99.90;;;;;;5055137;28;20232;-57
2022/08/02 03:53:38;;;;;;;1.63;1.00;;;17.70;99.90;;;;;;5055264;28;20202;-57
2022/08/02 03:56:05;;;;;;;2.05;1.10;;;17.70;99.90;;;;;;5055049;28;20691;-57
2022/08/02 03:58:31;;;;;;;1.20;1.00;;;17.70;99.90;;;;;;5037708;28;20180;-57
2022/08/02 04:00:57;;;;;;;1.27;1.15;;;17.70;99.90;;;;;;5055014;28;20655;-57
2022/08/02 04:03:23;;;;;;;1.80;1.20;;;17.70;99.90;;;;;;5037143;28;20708;-56
2022/08/02 04:05:53;;;;;;;1.33;1.20;;;17.80;99.90;;;;;;5054979;28;20171;-57
2022/08/02 04:08:21;;;;;;;1.25;1.08;;;17.70;99.90;;;;;;5054720;28;20518;-57
2022/08/02 04:13:36;;;;;;;1.23;1.10;;;17.70;99.90;;;;;;5054320;28;20225;-57
2022/08/02 04:16:19;;;;;;;1.67;1.30;;;17.60;99.90;;;;;;5054668;28;20218;-57
2022/08/02 04:19:04;;;;;;;1.38;1.27;;;17.60;99.90;;;;;;5036883;28;20172;-57
2022/08/02 04:21:37;;;;;;;1.83;1.45;;;17.60;99.90;;;;;;5054856;28;20502;-57
2022/08/02 04:24:04;;;;;;;1.55;1.45;;;17.60;99.90;;;;;;5054757;28;20533;-57
2022/08/02 04:26:33;;;;;;;1.67;1.23;;;17.60;99.90;;;;;;5054587;28;20201;-57
2022/08/02 04:29:00;;;;;;;1.35;1.25;;;17.60;99.90;;;;;;5054510;28;20172;-56
2022/08/02 04:31:26;;;;;;;1.38;1.00;;;17.60;99.90;;;;;;5054373;28;20183;-57
2022/08/02 04:33:52;;;;;;;1.70;1.15;;;17.60;99.90;;;;;;5054545;28;20187;-57
2022/08/02 04:36:18;;;;;;;1.35;1.25;;;17.50;99.90;;;;;;5020195;28;20219;-57
2022/08/02 04:38:43;;;;;;;1.40;1.10;;;17.50;99.90;;;;;;5054132;28;20175;-57
2022/08/02 04:41:09;;;;;;;2.88;1.80;;;17.50;99.90;;;;;;5052539;28;20262;-58
2022/08/02 04:43:35;;;;;;;1.95;1.50;;;17.60;99.90;;;;;;5036329;28;20171;-56
2022/08/02 04:46:02;;;;;;;1.45;1.33;;;17.70;99.90;;;;;;5054057;28;20179;-57
2022/08/02 04:48:31;;;;;;;1.40;1.20;;;17.60;99.90;;;;;;5054560;28;20267;-57
2022/08/02 04:50:57;;;;;;;1.38;1.27;;;17.60;99.90;;;;;;5036344;28;20560;-52
2022/08/02 04:53:23;;;;;;;1.73;1.30;;;17.60;99.90;;;;;;5053890;28;20175;-56
2022/08/02 04:55:49;;;;;;;1.40;1.20;;;17.60;99.90;;;;;;5035084;28;20214;-56
2022/08/02 04:58:14;;;;;;;2.15;1.60;;;17.60;99.90;;;;;;5053895;28;20254;-56
2022/08/02 05:00:40;;;;;;;1.98;1.38;;;17.70;99.90;;;;;;5054078;28;20649;-56
2022/08/02 05:03:13;;;;;;;3.22;1.65;;;17.70;99.90;;;;;;5053991;28;20225;-56
2022/08/02 05:05:38;;;;;;;2.97;1.50;;;17.80;99.90;;;;;;5053889;28;20172;-56
2022/08/02 05:08:04;;;;;;;2.83;1.60;;;17.90;99.90;;;;;;5053779;28;20183;-56
2022/08/02 05:10:30;;;;;;;2.88;1.40;;;17.90;99.90;;;;;;5053666;28;20191;-57
2022/08/02 05:12:56;;;;;;;1.58;1.27;;;17.90;99.90;;;;;;5053640;28;20229;-56
2022/08/02 05:15:24;;;;;;;2.25;1.65;;;17.90;99.90;;;;;;5053708;28;20207;-56
2022/08/02 05:17:50;;;;;;;1.77;1.45;;;18.00;99.90;;;;;;5036482;28;20167;-56
2022/08/02 05:20:17;;;;;;;1.85;1.27;;;18.10;99.90;;;;;;5053591;28;20186;-56
2022/08/02 05:22:43;;;;;;;2.80;1.42;;;18.10;99.90;;;;;;5053543;28;20174;-57
2022/08/02 05:25:09;;;;;;;1.90;1.45;;;18.20;99.90;;;;;;5035307;28;20178;-57
2022/08/02 05:27:35;;;;;;;1.60;1.40;;;18.20;99.90;;;;;;5053278;28;20179;-55
2022/08/02 05:30:01;;;;;;;1.85;1.30;;;18.30;99.90;;;;;;5019506;28;20613;-57
2022/08/02 05:32:30;;;;;;;2.20;1.23;;;18.30;99.90;;;;;;5053505;28;20182;-57
2022/08/02 05:34:56;;;;;;;2.80;1.50;;;18.40;99.90;;;;;;5053621;28;20207;-58
2022/08/02 05:37:22;;;;;;;1.50;1.20;;;18.50;99.90;;;;;;5035640;28;20644;-57
2022/08/02 05:39:51;;;;;;;1.67;1.30;;;18.60;99.90;;;;;;5053403;28;20262;-56
2022/08/02 05:42:20;;;;;;;2.50;1.50;;;18.70;99.90;;;;;;5053102;28;20175;-57
2022/08/02 05:44:46;;;;;;;1.70;1.15;;;18.60;99.90;;;;;;5036075;28;20198;-57
2022/08/02 05:47:11;;;;;;;1.58;1.38;;;18.80;99.90;;;;;;5035579;28;20183;-61
2022/08/02 05:49:37;;;;;;;1.13;1.02;;;18.90;99.90;;;;;;5053149;28;20206;-57
2022/08/02 05:52:28;;;;;;;1.80;1.17;;;19.10;99.90;;;;;;5035310;28;20521;-57
2022/08/02 05:55:08;;;;;;;1.63;1.38;;;19.20;99.90;;;;;;5053226;28;20203;-57
2022/08/02 05:58:10;;;;;;;1.52;1.23;;;19.20;99.90;;;;;;5053064;28;20632;-56
2022/08/02 06:00:39;;;;;;;2.15;1.30;;;19.30;99.90;;;;;;5053136;28;20628;-56
2022/08/02 06:03:25;;;;;;;1.90;1.30;;;19.30;99.90;;;;;;5053018;28;20195;-56
2022/08/02 06:06:15;;;;;;;1.10;1.00;;;19.60;99.90;;;;;;5035387;28;20202;-56
2022/08/02 06:08:57;;;;;;;2.00;1.10;;;19.60;99.90;;;;;;5052968;28;20206;-56
2022/08/02 06:11:31;;;;;;;1.38;1.00;;;19.60;99.90;;;;;;5052720;28;20623;-56
2022/08/02 06:14:00;;;;;;;1.35;1.10;;;19.70;99.90;;;;;;5053141;28;20501;-56
2022/08/02 06:16:26;;;;;;;1.85;1.42;;;19.90;99.90;;;;;;5052962;28;20211;-56
2022/08/02 06:18:56;;;;;;;1.80;1.25;;;19.90;99.90;;;;;;5052977;28;20176;-56
2022/08/02 06:21:22;;;;;;;1.90;1.38;;;20.10;99.90;;;;;;5035024;28;20640;-56
2022/08/02 06:23:48;;;;;;;1.42;0.90;;;20.20;99.90;;;;;;5052725;28;20241;-55
2022/08/02 06:26:15;;;;;;;1.45;0.98;;;20.40;99.90;;;;;;5035029;28;20584;-54
2022/08/02 06:28:44;;;;;;;2.58;1.48;;;20.60;99.90;;;;;;5035037;28;20579;-56
2022/08/02 06:31:11;;;;;;;1.55;1.30;;;20.70;99.90;;;;;;5052771;28;20179;-56
2022/08/02 06:33:38;;;;;;;2.05;1.40;;;20.80;99.90;;;;;;5052812;28;20633;-56
2022/08/02 06:36:52;;;;;;;2.10;1.50;;;20.80;99.90;;;;;;5036518;28;20545;-56
2022/08/02 06:39:30;;;;;;;1.75;1.30;;;20.90;99.90;;;;;;4975755;28;20196;-56
2022/08/02 06:42:01;;;;;;;1.15;1.05;;;20.80;99.90;;;;;;4975588;28;20174;-56
2022/08/02 06:44:30;;;;;;;1.65;1.30;;;20.70;99.90;;;;;;5005317;28;20640;-56
2022/08/02 06:46:57;;;;;;;0.90;0.80;;;20.90;99.90;;;;;;5038540;28;20207;-56
2022/08/02 06:49:22;;;;;;;1.23;1.10;;;21.10;99.90;;;;;;5038621;28;20175;-54
2022/08/02 06:51:48;;;;;;;1.40;1.30;;;21.20;99.90;;;;;;5038528;28;20220;-56
2022/08/02 06:54:20;;;;;;;1.60;1.20;;;21.30;99.90;;;;;;5056254;28;20175;-56
2022/08/02 06:56:46;;;;;;;2.58;1.13;;;21.30;99.90;;;;;;5039421;28;20650;-56
2022/08/02 06:59:14;;;;;;;1.52;1.30;;;21.40;99.90;;;;;;5056158;28;20628;-56
2022/08/02 07:01:40;;;;;;;3.13;1.40;;;21.50;99.90;;;;;;5038303;28;20171;-56
2022/08/02 07:04:06;;;;;;;1.17;1.08;;;21.60;99.90;;;;;;5056068;28;20182;-56
2022/08/02 07:06:35;;;;;;;1.63;1.10;;;21.60;99.90;;;;;;5056201;28;20525;-56
2022/08/02 07:09:01;;;;;;;1.13;1.00;;;21.70;99.90;;;;;;5056006;28;20180;-56
2022/08/02 07:11:26;;;;;;;1.55;0.90;;;21.90;99.90;;;;;;5056159;28;20179;-56
2022/08/02 07:13:52;;;;;;;2.13;1.20;;;21.80;99.90;;;;;;5055946;28;20198;-56
2022/08/02 07:16:18;;;;;;;1.73;1.15;;;21.80;99.90;;;;;;5055888;28;20215;-56
2022/08/02 07:18:43;;;;;;;1.20;1.10;;;21.70;99.90;;;;;;5055872;28;20199;-56
2022/08/02 07:21:09;;;;;;;1.15;1.00;;;21.90;99.90;;;;;;5055695;28;20545;-56
2022/08/02 07:23:35;;;;;;;1.13;1.02;;;22.10;99.90;;;;;;5055865;28;20171;-56
2022/08/02 07:26:00;;;;;;;2.05;0.98;;;22.10;99.90;;;;;;5055720;28;20272;-55
2022/08/02 07:28:26;;;;;;;1.08;0.75;;;22.20;99.90;;;;;;5037798;28;20538;-56
2022/08/02 07:30:55;;;;;;;1.88;1.20;;;22.40;99.90;;;;;;5037873;28;20228;-56
2022/08/02 07:33:20;;;;;;;1.35;0.93;;;22.40;99.90;;;;;;5037961;28;20233;-56
2022/08/02 07:35:46;;;;;;;0.90;0.90;;;22.30;99.90;;;;;;5037828;28;20318;-57
2022/08/02 07:38:12;;;;;;;0.88;0.82;;;22.50;99.90;;;;;;5055346;28;20186;-56
2022/08/02 07:40:38;;;;;;;1.58;0.88;;;22.20;99.90;;;;;;5055407;28;20219;-56
2022/08/02 07:43:03;;;;;;;0.85;0.80;;;22.50;99.90;;;;;;5055309;28;20191;-56
2022/08/02 07:45:30;;;;;;;1.30;0.95;;;22.90;99.90;;;;;;5055845;28;20194;-56
2022/08/02 07:47:56;;;;;;;0.70;0.70;;;23.20;99.90;;;;;;5036710;28;20200;-56
2022/08/02 07:50:27;;;;;;;0.85;0.77;;;23.30;99.90;;;;;;5037443;28;20637;-56
2022/08/02 07:52:52;;;;;;;0.88;0.73;;;23.40;99.90;;;;;;5038074;28;20179;-56
2022/08/02 07:55:21;;;;;;;0.60;0.60;;;23.40;99.90;;;;;;5054517;28;20215;-56
2022/08/02 07:57:47;;;;;;;1.50;0.63;;;23.20;99.90;;;;;;5055274;28;20203;-56
2022/08/02 08:00:15;;;;;;;1.27;0.95;;;23.30;99.90;;;;;;5021020;28;20671;-57
2022/08/02 08:02:40;;;;;;;0.90;0.47;;;23.10;99.90;;;;;;5054938;28;20275;-57
2022/08/02 08:05:06;;;;;;;0.70;0.70;;;23.40;99.90;;;;;;5054937;28;20600;-56
2022/08/02 08:07:33;;;;;;;0.50;0.50;;;23.40;99.90;;;;;;5054754;28;20600;-57
2022/08/02 08:09:59;;;;;;;0.73;0.63;;;23.50;99.90;;;;;;5054726;28;20175;-56
2022/08/02 08:12:25;;;;;;;0.60;0.60;;;23.50;99.90;;;;;;5055089;28;20547;-57
2022/08/02 08:14:51;;;;;;;2.45;1.00;;;23.60;99.90;;;;;;5054934;28;20293;-56
2022/08/02 08:17:17;;;;;;;0.70;0.70;;;23.40;99.90;;;;;;5037221;28;20262;-57
2022/08/02 08:19:43;;;;;;;0.80;0.75;;;23.60;99.90;;;;;;5054715;28;20163;-57
2022/08/02 08:22:09;;;;;;;3.28;0.75;;;23.40;99.90;;;;;;5036971;28;20171;-56
2022/08/02 08:24:34;;;;;;;1.02;0.90;;;23.70;99.90;;;;;;5003877;28;20180;-55
2022/08/02 08:27:00;;;;;;;0.80;0.68;;;23.90;99.90;;;;;;5054513;28;20649;-56
2022/08/02 08:29:26;;;;;;;0.70;0.55;;;24.20;99.90;;;;;;5036938;28;20218;-56
2022/08/02 08:31:52;;;;;;;0.80;0.60;;;24.40;99.90;;;;;;5036823;28;20183;-57
2022/08/02 08:34:18;;;;;;;0.60;0.60;;;24.50;99.90;;;;;;5054269;28;20175;-56
2022/08/02 08:36:44;;;;;;;0.70;0.70;;;24.70;99.90;;;;;;5054310;28;20171;-57
2022/08/02 08:39:09;;;;;;;0.73;0.50;;;24.90;99.20;;;;;;5020037;28;20296;-57
2022/08/02 08:41:36;;;;;;;0.50;0.45;;;24.90;99.10;;;;;;5054765;28;20190;-56
2022/08/02 08:44:02;;;;;;;0.50;0.50;;;25.00;99.10;;;;;;5036396;28;20183;-56
2022/08/02 08:46:29;;;;;;;0.88;0.55;;;25.00;98.50;;;;;;5054241;28;20266;-56
2022/08/02 08:49:08;;;;;;;0.43;0.43;;;25.00;98.50;;;;;;5054169;28;20172;-56
2022/08/02 08:51:42;;;;;;;0.50;0.50;;;24.90;97.70;;;;;;5054034;28;20167;-56
2022/08/02 08:54:11;;;;;;;2.45;0.60;;;25.10;98.10;;;;;;5054332;28;20172;-56
2022/08/02 08:56:39;;;;;;;0.50;0.50;;;25.40;98.00;;;;;;5054237;28;20179;-56
2022/08/02 08:59:05;;;;;;;0.55;0.55;;;25.60;97.50;;;;;;5053777;28;20186;-57
2022/08/02 09:01:31;;;;;;;0.85;0.40;;;25.70;96.60;;;;;;5053936;28;20584;-57
2022/08/02 09:03:57;;;;;;;0.98;0.70;;;25.50;97.30;;;;;;5053904;28;20651;-56
2022/08/02 09:06:24;;;;;;;0.40;0.40;;;25.10;96.90;;;;;;5035741;28;20183;-56
2022/08/02 09:08:49;;;;;;;0.50;0.50;;;25.30;97.60;;;;;;5054076;28;20167;-56
2022/08/02 09:11:18;;;;;;;0.73;0.60;;;25.30;97.30;;;;;;5053797;28;20624;-56
2022/08/02 09:13:55;;;;;;;0.45;0.45;;;25.40;97.30;;;;;;5053632;28;20186;-57
2022/08/02 09:16:37;;;;;;;0.57;0.43;;;25.20;95.80;;;;;;5053584;28;20234;-57
2022/08/02 09:19:25;;;;;;;0.30;0.30;;;25.70;96.00;;;;;;5053805;28;20516;-57
2022/08/02 09:22:02;;;;;;;0.80;0.50;;;26.10;95.70;;;;;;5053686;28;20164;-57
2022/08/02 09:24:28;;;;;;;0.30;0.30;;;26.30;95.30;;;;;;5037302;28;20573;-56
2022/08/02 09:26:54;;;;;;;0.38;0.38;;;26.40;95.40;;;;;;5053464;28;20179;-57
2022/08/02 09:29:23;;;;;;;0.50;0.43;;;26.50;95.10;;;;;;5053389;28;20663;-57
2022/08/02 09:31:50;;;;;;;0.55;0.55;;;26.50;95.00;;;;;;5051908;28;20628;-56
2022/08/02 09:34:16;;;;;;;0.35;0.35;;;26.20;94.50;;;;;;5053527;28;20261;-56
2022/08/02 09:36:44;;;;;;;0.50;0.50;;;26.40;95.40;;;;;;5053473;28;20182;-57
2022/08/02 09:39:15;;;;;;;0.40;0.40;;;26.40;94.90;;;;;;5053295;28;20179;-57
2022/08/02 09:41:44;;;;;;;0.40;0.40;;;26.60;95.00;;;;;;5035561;28;20222;-57
2022/08/02 09:44:11;;;;;;;0.38;0.38;;;26.50;94.20;;;;;;5053420;28;20660;-57
2022/08/02 09:46:40;;;;;;;0.47;0.38;;;26.20;94.30;;;;;;5035520;28;20274;-57
2022/08/02 09:49:08;;;;;;;0.32;0.32;;;26.00;93.80;;;;;;5053621;28;20167;-57
2022/08/02 09:51:35;;;;;;;0.95;0.55;;;26.30;94.40;;;;;;5035402;28;20174;-57
2022/08/02 09:54:05;;;;;;;0.47;0.38;;;26.30;94.40;;;;;;5053543;28;20175;-56
2022/08/02 09:57:00;;;;;;;0.40;0.40;;;26.40;94.70;;;;;;5053114;28;20229;-57
2022/08/02 09:59:27;;;;;;;0.32;0.32;;;26.50;94.70;;;;;;5032481;28;20191;-57
2022/08/02 10:01:55;;;;;;;0.60;0.45;;;26.50;93.80;;;;;;5053313;28;20537;-57
2022/08/02 10:04:23;;;;;;;0.30;0.30;;;26.50;94.10;;;;;;5053132;28;20171;-57
2022/08/02 10:06:50;;;;;;;0.52;0.52;;;26.50;93.30;;;;;;5052719;28;20731;-56
2022/08/02 10:09:16;;;;;;;0.52;0.50;;;26.70;93.80;;;;;;5035487;28;20233;-57
2022/08/02 10:11:46;;;;;;;0.40;0.40;;;26.80;94.10;;;;;;5055871;28;20183;-57
2022/08/02 10:14:12;;;;;;;0.50;0.50;;;27.00;93.30;;;;;;5039035;28;20239;-57
2022/08/02 10:16:42;;;;;;;0.40;0.40;;;26.90;93.80;;;;;;5057073;28;20262;-57
2022/08/02 10:19:08;;;;;;;0.57;0.50;;;26.80;93.90;;;;;;5039177;28;20309;-57
2022/08/02 10:22:07;;;;;;;0.50;0.50;;;27.00;93.50;;;;;;5057056;28;20183;-57
2022/08/02 10:24:36;;;;;;;0.35;0.35;;;27.00;93.60;;;;;;5046118;28;20191;-56
2022/08/02 10:27:03;;;;;;;0.70;0.43;;;26.80;93.10;;;;;;5056809;28;20168;-57
2022/08/02 10:29:35;;;;;;;0.30;0.30;;;26.70;93.30;;;;;;5056701;28;20190;-57
2022/08/02 10:32:06;;;;;;;0.30;0.30;;;26.90;92.80;;;;;;5056933;28;20183;-56
2022/08/02 10:34:46;;;;;;;0.50;0.40;;;27.20;93.00;;;;;;5057033;28;20340;-57
2022/08/02 10:37:13;;;;;;;0.45;0.45;;;27.60;93.10;;;;;;5056637;28;20167;-56
2022/08/02 10:39:40;;;;;;;0.32;0.30;;;27.80;93.00;;;;;;5057187;28;20167;-56
2022/08/02 10:42:07;;;;;;;0.30;0.30;;;27.90;93.80;;;;;;5056840;28;20179;-57
2022/08/02 10:44:34;;;;;;;0.38;0.38;;;28.20;92.80;;;;;;5056643;28;20186;-57
2022/08/02 10:47:19;;;;;;;1.17;0.50;;;28.20;92.00;;;;;;5056583;28;20179;-57
2022/08/02 10:49:57;;;;;;;0.85;0.55;;;28.10;92.10;;;;;;5056374;28;20172;-57
2022/08/02 10:52:27;;;;;;;1.38;0.40;;;28.20;92.80;;;;;;5038487;28;20266;-56
2022/08/02 10:55:02;;;;;;;0.30;0.30;;;28.00;92.60;;;;;;5056410;28;20682;-56
2022/08/02 10:57:32;;;;;;;0.50;0.30;;;28.10;92.80;;;;;;5056491;28;20186;-56
2022/08/02 11:00:14;;;;;;;0.40;0.40;;;28.10;92.80;;;;;;5056244;28;20215;-56
2022/08/02 11:02:45;;;;;;;0.45;0.40;;;28.30;93.40;;;;;;5056183;28;20738;-56
2022/08/02 11:05:30;;;;;;;0.50;0.50;;;28.50;92.70;;;;;;5056103;28;20225;-56
2022/08/02 11:07:55;;;;;;;0.70;0.40;;;28.50;92.90;;;;;;5056271;28;20177;-57
2022/08/02 11:10:31;;;;;;;0.35;0.30;;;28.60;92.40;;;;;;5056124;28;20266;-56
2022/08/02 11:13:15;;;;;;;0.20;0.20;;;28.60;92.10;;;;;;5056202;28;20695;-57
2022/08/02 11:16:13;;;;;;;0.47;0.47;;;28.50;92.00;;;;;;5038207;28;20232;-57
2022/08/02 11:18:51;;;;;;;0.57;0.43;;;28.60;91.90;;;;;;5001428;28;20183;-57
2022/08/02 11:21:22;;;;;;;0.47;0.47;;;28.50;91.90;;;;;;5055633;28;20632;-57
2022/08/02 11:23:47;;;;;;;0.40;0.40;;;28.60;92.00;;;;;;5055622;28;20651;-56
2022/08/02 11:26:31;;;;;;;1.02;0.40;;;28.70;91.40;;;;;;5055824;28;20175;-56
2022/08/02 11:28:58;;;;;;;0.45;0.45;;;28.90;92.00;;;;;;5055917;28;20167;-57
2022/08/02 11:31:24;;;;;;;0.40;0.40;;;28.80;91.80;;;;;;5055663;28;20229;-57
2022/08/02 11:33:51;;;;;;;0.40;0.40;;;28.80;91.10;;;;;;5037836;28;20175;-57
2022/08/02 11:36:17;;;;;;;0.40;0.40;;;29.10;91.40;;;;;;5055281;28;20206;-57
2022/08/02 11:38:43;;;;;;;0.32;0.32;;;29.20;91.60;;;;;;5055620;28;20173;-57
2022/08/02 11:41:17;;;;;;;0.30;0.30;;;29.40;91.70;;;;;;5037639;28;20544;-57
2022/08/02 11:43:43;;;;;;;0.30;0.30;;;29.60;90.80;;;;;;5055567;28;20658;-58
2022/08/02 11:46:13;;;;;;;0.47;0.30;;;29.50;90.90;;;;;;5055408;28;20174;-57
2022/08/02 11:48:40;;;;;;;0.65;0.32;;;29.30;91.10;;;;;;5055290;28;20171;-56
2022/08/02 11:51:10;;;;;;;0.50;0.30;;;29.50;90.90;;;;;;5055451;28;20183;-57
2022/08/02 11:53:45;;;;;;;0.40;0.40;;;29.50;91.20;;;;;;5055338;28;20167;-57
2022/08/02 11:56:14;;;;;;;0.40;0.30;;;29.60;91.50;;;;;;5037465;28;20310;-56
2022/08/02 11:58:40;;;;;;;0.70;0.40;;;29.60;91.30;;;;;;5055215;28;20257;-57
2022/08/02 12:01:06;;;;;;;0.30;0.30;;;29.60;91.30;;;;;;5055093;28;20203;-57
2022/08/02 12:03:34;;;;;;;0.40;0.40;;;29.80;91.70;;;;;;5054981;28;20191;-56
2022/08/02 12:06:00;;;;;;;0.38;0.30;;;29.70;90.80;;;;;;5054932;28;20628;-56
2022/08/02 12:08:30;;;;;;;0.43;0.43;;;29.50;91.20;;;;;;5054812;28;20598;-57
2022/08/02 12:10:56;;;;;;;1.35;0.47;;;29.10;91.20;;;;;;5055012;28;20186;-57
2022/08/02 12:13:22;;;;;;;0.22;0.22;;;29.20;91.60;;;;;;5037145;28;20286;-57
2022/08/02 12:15:47;;;;;;;0.40;0.40;;;28.90;91.50;;;;;;5036934;28;20730;-56
2022/08/02 12:21:03;;;;;;;0.40;0.40;;;29.30;92.00;;;;;;5039642;28;20179;-56
2022/08/02 12:23:45;;;;;;;1.08;0.43;;;29.30;92.00;;;;;;5055012;28;20571;-57
2022/08/02 12:26:11;;;;;;;1.25;0.35;;;29.40;92.00;;;;;;5054556;28;20258;-56
2022/08/02 12:28:38;;;;;;;0.25;0.25;;;29.40;92.60;;;;;;5036946;28;20290;-56
2022/08/02 12:31:05;;;;;;;0.60;0.40;;;29.60;92.40;;;;;;5054616;28;20172;-56
2022/08/02 12:33:48;;;;;;;0.40;0.40;;;29.60;92.50;;;;;;5054127;28;20278;-57
2022/08/02 12:36:29;;;;;;;0.43;0.43;;;29.60;92.40;;;;;;5054390;28;20199;-56
2022/08/02 12:38:59;;;;;;;0.52;0.45;;;29.70;92.20;;;;;;5054258;28;20203;-57
2022/08/02 12:41:28;;;;;;;0.50;0.40;;;29.70;91.80;;;;;;5054527;28;20179;-57
2022/08/02 12:43:55;;;;;;;0.40;0.40;;;29.60;91.90;;;;;;5036495;28;20659;-56
2022/08/02 12:46:22;;;;;;;0.30;0.30;;;29.60;91.80;;;;;;5054290;28;20175;-56
2022/08/02 12:48:49;;;;;;;0.40;0.40;;;29.80;92.20;;;;;;5054028;28;20641;-56
2022/08/02 12:51:29;;;;;;;0.38;0.38;;;29.60;92.40;;;;;;5054344;28;20175;-57
2022/08/02 12:54:16;;;;;;;1.10;0.55;;;29.50;92.40;;;;;;5054200;28;20171;-56
2022/08/02 12:56:42;;;;;;;0.45;0.38;;;29.80;92.80;;;;;;5053982;28;20622;-56
2022/08/02 12:59:11;;;;;;;0.90;0.30;;;29.90;92.30;;;;;;5036134;28;20211;-56
2022/08/02 13:01:37;;;;;;;0.88;0.47;;;29.90;92.40;;;;;;5053819;28;20199;-57
2022/08/02 13:04:06;;;;;;;0.82;0.50;;;30.10;92.20;;;;;;5054113;28;20621;-56